createdAt,value
2022-10-14T00:04:05.434Z,97075.31
2022-10-14T00:09:26.249Z,97074.34
2022-10-14T00:14:48.383Z,97074.75
2022-10-14T00:20:09.519Z,97073.13
2022-10-14T00:25:30.495Z,97066.00
2022-10-14T00:31:01.567Z,97065.41
2022-10-14T00:36:24.504Z,97056.91
2022-10-14T00:41:45.548Z,97061.03
2022-10-14T00:47:06.335Z,97060.75
2022-10-14T00:52:27.659Z,97056.63
2022-10-14T00:57:48.608Z,97055.78
2022-10-14T01:03:17.342Z,97044.78
2022-10-14T01:08:47.105Z,97044.34
2022-10-14T01:14:28.087Z,97038.59
2022-10-14T01:20:38.385Z,97033.50
2022-10-14T01:26:10.960Z,97033.19
2022-10-14T01:31:35.646Z,97041.19
2022-10-14T01:37:09.308Z,97037.50
2022-10-14T01:42:38.355Z,97025.13
2022-10-14T01:48:00.802Z,97029.41
2022-10-14T01:53:49.002Z,97026.94
2022-10-14T01:59:13.565Z,97018.41
2022-10-14T02:04:34.346Z,97015.13
2022-10-14T02:10:01.076Z,97013.19
2022-10-14T02:15:56.217Z,97009.63
2022-10-14T02:21:24.731Z,97015.13
2022-10-14T02:26:47.514Z,97005.09
2022-10-14T02:32:11.173Z,97008.13
2022-10-14T02:37:33.726Z,97011.97
2022-10-14T02:42:54.246Z,97010.31
2022-10-14T02:48:15.264Z,97004.13
2022-10-14T02:53:35.887Z,97001.78
2022-10-14T02:58:56.541Z,97004.81
2022-10-14T03:04:17.039Z,97001.53
2022-10-14T03:09:37.696Z,97007.16
2022-10-14T03:15:00.495Z,97007.88
2022-10-14T03:20:21.140Z,97004.84
2022-10-14T03:25:46.791Z,97004.41
2022-10-14T03:31:21.132Z,97008.94
2022-10-14T03:37:05.084Z,97008.81
2022-10-14T03:42:28.157Z,97010.19
2022-10-14T03:47:49.367Z,97003.34
2022-10-14T03:53:09.948Z,97006.47
2022-10-14T03:58:31.102Z,97004.13
2022-10-14T04:03:58.257Z,96991.94
2022-10-14T04:09:21.565Z,96997.16
2022-10-14T04:14:42.964Z,96999.50
2022-10-14T04:20:05.755Z,96985.88
2022-10-14T04:25:27.321Z,96986.44
2022-10-14T04:30:56.087Z,96982.72
2022-10-14T04:36:21.852Z,96983.41
2022-10-14T04:41:43.466Z,96975.16
2022-10-14T04:47:09.133Z,96968.56
2022-10-14T04:52:31.703Z,96960.28
2022-10-14T04:58:01.737Z,96967.19
2022-10-14T05:03:29.995Z,96968.84
2022-10-14T05:08:52.598Z,96968.56
2022-10-14T05:14:14.070Z,96956.63
2022-10-14T05:19:37.203Z,96965.94
2022-10-14T05:24:57.877Z,96959.91
2022-10-14T05:30:18.894Z,96954.53
2022-10-14T05:35:58.703Z,96957.78
2022-10-14T05:41:22.221Z,96958.34
2022-10-14T05:46:43.205Z,96959.84
2022-10-14T05:52:04.780Z,96966.78
2022-10-14T05:57:28.392Z,96967.31
2022-10-14T06:02:49.173Z,96960.19
2022-10-14T06:08:12.008Z,96967.31
2022-10-14T06:13:32.959Z,96962.53
2022-10-14T06:18:54.665Z,96964.03
2022-10-14T06:24:16.410Z,96963.75
2022-10-14T06:29:40.140Z,96966.91
2022-10-14T06:35:01.138Z,96967.94
2022-10-14T06:40:21.842Z,96967.44
2022-10-14T06:45:42.496Z,96968.81
2022-10-14T06:51:03.702Z,96968.13
2022-10-14T06:56:24.430Z,96968.81
2022-10-14T07:01:45.126Z,96960.41
2022-10-14T07:07:07.190Z,96977.69
2022-10-14T07:12:28.190Z,96976.97
2022-10-14T07:17:48.831Z,96984.69
2022-10-14T07:23:09.790Z,96992.34
2022-10-14T07:28:30.529Z,96983.16
2022-10-14T07:33:51.457Z,96986.19
2022-10-14T07:39:12.340Z,96984.25
2022-10-14T07:44:33.500Z,96977.78
2022-10-14T07:49:54.429Z,96985.09
2022-10-14T07:55:15.088Z,96981.63
2022-10-14T08:00:37.494Z,96974.13
2022-10-14T08:06:03.259Z,96972.97
2022-10-14T08:11:26.943Z,96984.50
2022-10-14T08:16:48.221Z,96986.53
2022-10-14T08:22:09.755Z,96988.31
2022-10-14T08:27:30.788Z,96986.38
2022-10-14T08:32:51.418Z,96990.59
2022-10-14T08:38:12.206Z,96983.00
2022-10-14T08:44:13.345Z,96987.84
2022-10-14T08:49:38.641Z,96985.91
2022-10-14T08:55:05.345Z,96986.00
2022-10-14T09:00:29.987Z,96991.38
2022-10-14T09:05:58.727Z,96995.63
2022-10-14T09:11:22.225Z,96996.59
2022-10-14T09:16:50.376Z,96993.84
2022-10-14T09:22:15.666Z,96996.69
2022-10-14T09:27:38.006Z,96994.81
2022-10-14T09:32:59.975Z,96998.28
2022-10-14T09:38:21.564Z,96996.31
2022-10-14T09:44:22.501Z,96991.00
2022-10-14T09:49:47.078Z,96986.44
2022-10-14T09:55:18.916Z,96990.03
2022-10-14T10:00:40.631Z,96987.59
2022-10-14T10:06:09.379Z,96981.44
2022-10-14T10:11:38.288Z,96979.09
2022-10-14T10:17:08.419Z,96976.28
2022-10-14T10:22:34.157Z,96983.53
2022-10-14T10:27:58.431Z,96971.47
2022-10-14T10:33:26.472Z,96969.13
2022-10-14T10:39:06.002Z,96954.03
2022-10-14T10:44:58.868Z,96950.59
2022-10-14T10:50:37.040Z,96950.84
2022-10-14T10:56:04.432Z,96936.44
2022-10-14T11:02:03.839Z,96932.25
2022-10-14T11:07:43.101Z,96915.81
2022-10-14T11:13:35.371Z,96910.44
2022-10-14T11:19:14.677Z,96910.28
2022-10-14T11:24:58.693Z,96906.25
2022-10-14T11:30:32.607Z,96897.22
2022-10-14T11:36:31.551Z,96897.75
2022-10-14T11:42:01.554Z,96898.75
2022-10-14T11:47:34.772Z,96891.38
2022-10-14T11:53:09.956Z,96897.63
2022-10-14T11:58:35.190Z,96891.94
2022-10-14T12:04:10.895Z,96889.13
2022-10-14T12:09:39.139Z,96882.72
2022-10-14T12:15:17.626Z,96884.34
2022-10-14T12:20:51.750Z,96875.66
2022-10-14T12:26:15.791Z,96870.72
2022-10-14T12:31:39.151Z,96870.22
2022-10-14T12:37:00.562Z,96859.56
2022-10-14T12:42:22.352Z,96855.81
2022-10-14T12:47:44.150Z,96846.13
2022-10-14T12:53:15.944Z,96847.75
2022-10-14T12:59:01.275Z,96847.09
2022-10-14T13:04:22.275Z,96844.16
2022-10-14T13:09:44.859Z,96847.25
2022-10-14T13:15:48.727Z,96839.84
2022-10-14T13:21:31.176Z,96845.44
2022-10-14T13:26:54.814Z,96830.16
2022-10-14T13:32:31.223Z,96827.38
2022-10-14T13:38:02.146Z,96831.63
2022-10-14T13:43:37.323Z,96818.16
2022-10-14T13:49:05.416Z,96819.47
2022-10-14T13:54:28.716Z,96808.78
2022-10-14T14:00:37.286Z,96798.78
2022-10-14T14:05:36.241Z,96792.22
2022-10-14T14:11:18.961Z,96787.94
2022-10-14T14:22:21.039Z,96789.06
2022-10-14T14:27:49.284Z,96793.34
2022-10-14T14:33:19.655Z,96789.59
2022-10-14T14:38:51.724Z,96787.13
2022-10-14T14:44:25.342Z,96777.63
2022-10-14T14:49:54.088Z,96771.09
2022-10-14T14:55:34.696Z,96763.25
2022-10-14T15:00:56.325Z,96766.03
2022-10-14T15:06:18.198Z,96759.78
2022-10-14T15:11:58.001Z,96753.06
2022-10-14T15:17:33.467Z,96764.72
2022-10-14T15:22:54.296Z,96755.19
2022-10-14T15:28:31.898Z,96744.56
2022-10-14T15:33:53.404Z,96737.19
2022-10-14T15:39:14.283Z,96729.78
2022-10-14T15:44:35.009Z,96737.03
2022-10-14T15:49:57.203Z,96734.88
2022-10-14T15:55:23.083Z,96736.81
2022-10-14T16:00:47.430Z,96735.69
2022-10-14T16:06:09.099Z,96737.00
2022-10-14T16:11:31.578Z,96733.91
2022-10-14T16:16:52.853Z,96734.59
2022-10-14T16:22:14.845Z,96742.59
2022-10-14T16:27:35.962Z,96739.16
2022-10-14T16:32:57.037Z,96737.19
2022-10-14T16:38:17.591Z,96745.25
2022-10-14T16:43:38.623Z,96753.28
2022-10-14T16:48:59.629Z,96755.59
2022-10-14T16:54:21.996Z,96754.25
2022-10-14T16:59:42.696Z,96749.84
2022-10-14T17:05:03.448Z,96754.06
2022-10-14T17:10:25.248Z,96747.19
2022-10-14T17:15:45.922Z,96747.22
2022-10-14T17:21:09.006Z,96752.47
2022-10-14T17:26:31.551Z,96748.84
2022-10-14T17:31:52.423Z,96745.41
2022-10-14T17:37:13.217Z,96743.91
2022-10-14T17:42:34.082Z,96740.75
2022-10-14T17:47:56.568Z,96720.78
2022-10-14T17:53:17.547Z,96727.78
2022-10-14T17:58:39.180Z,96729.06
2022-10-14T18:04:01.021Z,96716.72
2022-10-14T18:09:21.758Z,96719.00
2022-10-14T18:14:42.531Z,96712.47
2022-10-14T18:20:05.501Z,96711.66
2022-10-14T18:25:26.515Z,96709.34
2022-10-14T18:30:47.144Z,96725.56
2022-10-14T18:36:11.113Z,96727.44
2022-10-14T18:41:32.663Z,96718.59
2022-10-14T18:46:55.847Z,96715.44
2022-10-14T18:52:18.907Z,96718.91
2022-10-14T18:57:39.574Z,96713.84
2022-10-14T19:03:00.043Z,96704.19
2022-10-14T19:08:22.920Z,96701.06
2022-10-14T19:13:45.413Z,96700.03
2022-10-14T19:19:16.573Z,96707.69
2022-10-14T19:24:37.929Z,96700.69
2022-10-14T19:29:58.628Z,96691.13
2022-10-14T19:35:21.810Z,96696.81
2022-10-14T19:40:42.556Z,96685.88
2022-10-14T19:46:09.312Z,96680.44
2022-10-14T19:51:31.329Z,96679.59
2022-10-14T19:56:52.250Z,96670.47
2022-10-14T20:02:15.106Z,96667.34
2022-10-14T20:07:35.693Z,96668.03
2022-10-14T20:12:56.437Z,96657.22
2022-10-14T20:18:18.522Z,96653.16
2022-10-14T20:23:39.703Z,96653.69
2022-10-14T20:29:00.375Z,96657.28
2022-10-14T20:34:21.078Z,96656.09
2022-10-14T20:39:41.698Z,96646.91
2022-10-14T20:45:02.617Z,96645.28
2022-10-14T20:50:23.630Z,96643.63
2022-10-14T20:55:44.426Z,96635.28
2022-10-14T21:01:16.508Z,96630.19
2022-10-14T21:06:38.922Z,96631.19
2022-10-14T21:11:59.940Z,96616.31
2022-10-14T21:17:20.807Z,96599.81
2022-10-14T21:22:41.687Z,96595.56
2022-10-14T21:28:02.293Z,96602.06
2022-10-14T21:33:22.844Z,96612.47
2022-10-14T21:38:43.598Z,96609.03
2022-10-14T21:44:05.228Z,96603.16
2022-10-14T21:49:26.572Z,96598.22
2022-10-14T21:54:47.225Z,96595.59
2022-10-14T22:00:09.317Z,96592.69
2022-10-14T22:05:30.026Z,96589.28
2022-10-14T22:10:50.568Z,96579.44
2022-10-14T22:16:13.540Z,96585.81
2022-10-14T22:21:36.716Z,96577.47
2022-10-14T22:26:57.666Z,96578.38
2022-10-14T22:32:18.272Z,96584.09
2022-10-14T22:37:38.838Z,96576.25
2022-10-14T22:42:59.483Z,96562.69
2022-10-14T22:48:20.057Z,96550.28
2022-10-14T22:53:41.852Z,96531.53
2022-10-14T22:59:05.747Z,96536.78
2022-10-14T23:04:26.461Z,96529.06
2022-10-14T23:09:47.259Z,96524.69
2022-10-14T23:15:08.413Z,96525.06
2022-10-14T23:20:29.373Z,96519.03
2022-10-14T23:25:50.325Z,96521.66
2022-10-14T23:31:13.611Z,96512.94
2022-10-14T23:36:34.659Z,96522.38
2022-10-14T23:41:55.195Z,96519.28
2022-10-14T23:47:15.801Z,96521.09
2022-10-14T23:52:36.298Z,96514.84
2022-10-14T23:57:56.841Z,96491.00
